DLH513 EDDN-EDDC
Flight info
| Callsign | DLH513 |
|---|---|
| Flight time | 0h 28m |
| Altitude | 23000 |
| Route | ERETO1C ERETO Z715 ABKIS Q240 DRN |
| Aircraft | A320/M-SDE3FGHIRWY/LB1 |
Departure
| Time | 2026-05-01 11:38 |
|---|---|
| Airport | Nuremberg Airport (EDDN) |
Arrival
| Time | 2026-05-01 12:07 |
|---|---|
| Airport | Dresden Airport (EDDC) |
| Time | Latitude | Longitude | Altitude | Speed | Heading |
|---|---|---|---|---|---|
| 2026-05-01 11:16 | 49.49518 | 11.07791 | 1026 ft | 0 kts | 188° |
| 2026-05-01 11:31 | 49.49525 | 11.07792 | 1026 ft | 4 kts | 190° |
| 2026-05-01 11:31 | 49.49551 | 11.07802 | 1013 ft | 4 kts | 204° |
| 2026-05-01 11:32 | 49.49573 | 11.07824 | 1023 ft | 4 kts | 237° |
| 2026-05-01 11:32 | 49.49578 | 11.07850 | 1027 ft | 1 kts | 278° |
| 2026-05-01 11:32 | 49.49577 | 11.07855 | 1027 ft | 1 kts | 278° |
| 2026-05-01 11:34 | 49.49579 | 11.07840 | 1026 ft | 4 kts | 278° |
| 2026-05-01 11:34 | 49.49586 | 11.07784 | 1027 ft | 7 kts | 296° |
| 2026-05-01 11:34 | 49.49640 | 11.07770 | 1026 ft | 8 kts | 9° |
| 2026-05-01 11:34 | 49.49687 | 11.07712 | 1026 ft | 15 kts | 288° |
| 2026-05-01 11:35 | 49.49704 | 11.07535 | 1022 ft | 17 kts | 278° |
| 2026-05-01 11:35 | 49.49721 | 11.07361 | 1023 ft | 16 kts | 278° |
| 2026-05-01 11:35 | 49.49738 | 11.07190 | 1022 ft | 16 kts | 278° |
| 2026-05-01 11:35 | 49.49753 | 11.07024 | 1021 ft | 15 kts | 278° |
| 2026-05-01 11:36 | 49.49770 | 11.06861 | 1020 ft | 15 kts | 279° |
| 2026-05-01 11:36 | 49.49785 | 11.06706 | 1020 ft | 14 kts | 278° |
| 2026-05-01 11:36 | 49.49801 | 11.06565 | 1020 ft | 13 kts | 288° |
| 2026-05-01 11:36 | 49.49864 | 11.06506 | 1021 ft | 10 kts | 337° |
| 2026-05-01 11:37 | 49.49928 | 11.06472 | 1023 ft | 10 kts | 347° |
| 2026-05-01 11:37 | 49.49984 | 11.06498 | 1021 ft | 7 kts | 29° |
| 2026-05-01 11:37 | 49.49992 | 11.06559 | 1024 ft | 8 kts | 95° |
| 2026-05-01 11:37 | 49.49961 | 11.06858 | 1022 ft | 63 kts | 98° |
| 2026-05-01 11:38 | 49.49860 | 11.07898 | 1027 ft | 130 kts | 98° |
| 2026-05-01 11:38 | 49.49715 | 11.09456 | 1424 ft | 149 kts | 101° |
| 2026-05-01 11:38 | 49.49557 | 11.11017 | 2303 ft | 147 kts | 99° |
| 2026-05-01 11:38 | 49.49393 | 11.12642 | 2880 ft | 164 kts | 99° |
| 2026-05-01 11:39 | 49.49213 | 11.14472 | 3390 ft | 181 kts | 100° |
| 2026-05-01 11:39 | 49.49088 | 11.16486 | 3874 ft | 198 kts | 90° |
| 2026-05-01 11:39 | 49.49361 | 11.18688 | 4295 ft | 225 kts | 72° |
| 2026-05-01 11:39 | 49.50233 | 11.20850 | 4873 ft | 254 kts | 50° |
| 2026-05-01 11:40 | 49.51652 | 11.22646 | 5645 ft | 270 kts | 41° |
| 2026-05-01 11:40 | 49.53132 | 11.24408 | 6786 ft | 268 kts | 41° |
| 2026-05-01 11:40 | 49.54604 | 11.26179 | 7774 ft | 272 kts | 41° |
| 2026-05-01 11:40 | 49.56094 | 11.28005 | 8814 ft | 275 kts | 41° |
| 2026-05-01 11:41 | 49.57600 | 11.29858 | 9807 ft | 279 kts | 40° |
| 2026-05-01 11:41 | 49.59242 | 11.31501 | 10746 ft | 285 kts | 28° |
| 2026-05-01 11:41 | 49.61191 | 11.32510 | 11273 ft | 309 kts | 13° |
| 2026-05-01 11:41 | 49.63381 | 11.33083 | 11768 ft | 327 kts | 12° |
| 2026-05-01 11:42 | 49.65646 | 11.33655 | 12597 ft | 333 kts | 12° |
| 2026-05-01 11:42 | 49.67941 | 11.34231 | 13489 ft | 336 kts | 12° |
| 2026-05-01 11:42 | 49.70263 | 11.34821 | 14340 ft | 340 kts | 12° |
| 2026-05-01 11:42 | 49.72611 | 11.35429 | 15094 ft | 344 kts | 12° |
| 2026-05-01 11:43 | 49.74974 | 11.36048 | 15846 ft | 347 kts | 12° |
| 2026-05-01 11:43 | 49.77375 | 11.36678 | 16609 ft | 350 kts | 12° |
| 2026-05-01 11:43 | 49.79791 | 11.37312 | 17363 ft | 354 kts | 13° |
| 2026-05-01 11:44 | 49.84699 | 11.38608 | 18823 ft | 362 kts | 12° |
| 2026-05-01 11:44 | 49.87198 | 11.39266 | 19449 ft | 365 kts | 12° |
| 2026-05-01 11:44 | 49.89708 | 11.39955 | 20103 ft | 367 kts | 15° |
| 2026-05-01 11:44 | 49.92130 | 11.41188 | 20752 ft | 367 kts | 26° |
| 2026-05-01 11:45 | 49.94347 | 11.43146 | 21390 ft | 368 kts | 37° |
| 2026-05-01 11:45 | 49.96280 | 11.45751 | 22012 ft | 369 kts | 46° |
| 2026-05-01 11:45 | 49.98093 | 11.48592 | 22608 ft | 372 kts | 46° |
| 2026-05-01 11:45 | 49.99917 | 11.51455 | 23211 ft | 375 kts | 46° |
| 2026-05-01 11:46 | 50.01759 | 11.54348 | 23380 ft | 375 kts | 46° |
| 2026-05-01 11:46 | 50.03570 | 11.57196 | 23415 ft | 374 kts | 46° |
| 2026-05-01 11:46 | 50.05446 | 11.60151 | 23420 ft | 393 kts | 46° |
| 2026-05-01 11:46 | 50.07408 | 11.63247 | 23420 ft | 410 kts | 46° |
| 2026-05-01 11:47 | 50.09450 | 11.66530 | 23426 ft | 422 kts | 47° |
| 2026-05-01 11:47 | 50.11488 | 11.69891 | 23427 ft | 433 kts | 47° |
| 2026-05-01 11:47 | 50.13525 | 11.73299 | 23429 ft | 438 kts | 47° |
| 2026-05-01 11:47 | 50.15624 | 11.76837 | 23432 ft | 439 kts | 48° |
| 2026-05-01 11:48 | 50.17693 | 11.80333 | 23436 ft | 438 kts | 48° |
| 2026-05-01 11:48 | 50.19545 | 11.84094 | 23435 ft | 438 kts | 58° |
| 2026-05-01 11:48 | 50.21138 | 11.88143 | 23437 ft | 438 kts | 58° |
| 2026-05-01 11:48 | 50.22669 | 11.92036 | 23436 ft | 438 kts | 58° |
| 2026-05-01 11:49 | 50.24258 | 11.96079 | 23438 ft | 437 kts | 58° |
| 2026-05-01 11:49 | 50.25853 | 12.00133 | 23438 ft | 438 kts | 58° |
| 2026-05-01 11:49 | 50.27474 | 12.04171 | 23437 ft | 437 kts | 57° |
| 2026-05-01 11:49 | 50.29159 | 12.08123 | 23432 ft | 437 kts | 56° |
| 2026-05-01 11:50 | 50.30893 | 12.12032 | 23431 ft | 437 kts | 55° |
| 2026-05-01 11:50 | 50.32644 | 12.15919 | 23428 ft | 437 kts | 55° |
| 2026-05-01 11:50 | 50.34390 | 12.19801 | 23426 ft | 437 kts | 55° |
| 2026-05-01 11:50 | 50.36159 | 12.23688 | 23423 ft | 437 kts | 54° |
| 2026-05-01 11:51 | 50.37954 | 12.27521 | 23314 ft | 438 kts | 53° |
| 2026-05-01 11:51 | 50.39764 | 12.31328 | 22951 ft | 434 kts | 53° |
| 2026-05-01 11:51 | 50.41540 | 12.35048 | 22675 ft | 417 kts | 53° |
| 2026-05-01 11:51 | 50.43239 | 12.38626 | 22423 ft | 402 kts | 54° |
| 2026-05-01 11:52 | 50.44873 | 12.42093 | 22039 ft | 391 kts | 54° |
| 2026-05-01 11:52 | 50.46473 | 12.45517 | 21477 ft | 386 kts | 54° |
| 2026-05-01 11:52 | 50.48046 | 12.48900 | 20979 ft | 382 kts | 54° |
| 2026-05-01 11:52 | 50.49603 | 12.52260 | 20477 ft | 379 kts | 54° |
| 2026-05-01 11:53 | 50.51148 | 12.55598 | 20009 ft | 376 kts | 54° |
| 2026-05-01 11:53 | 50.52679 | 12.58907 | 19526 ft | 373 kts | 54° |
| 2026-05-01 11:53 | 50.54205 | 12.62197 | 19045 ft | 370 kts | 54° |
| 2026-05-01 11:53 | 50.55715 | 12.65456 | 18556 ft | 368 kts | 54° |
| 2026-05-01 11:54 | 50.57213 | 12.68695 | 18070 ft | 365 kts | 54° |
| 2026-05-01 11:54 | 50.58704 | 12.71923 | 17603 ft | 363 kts | 54° |
| 2026-05-01 11:54 | 50.60181 | 12.75126 | 17152 ft | 360 kts | 55° |
| 2026-05-01 11:54 | 50.61647 | 12.78305 | 16705 ft | 358 kts | 55° |
| 2026-05-01 11:55 | 50.63105 | 12.81473 | 16250 ft | 356 kts | 55° |
| 2026-05-01 11:55 | 50.64550 | 12.84615 | 15821 ft | 353 kts | 55° |
| 2026-05-01 11:55 | 50.65990 | 12.87754 | 15388 ft | 352 kts | 55° |
| 2026-05-01 11:55 | 50.67415 | 12.90861 | 14946 ft | 349 kts | 55° |
| 2026-05-01 11:56 | 50.68834 | 12.93955 | 14515 ft | 347 kts | 56° |
| 2026-05-01 11:56 | 50.70247 | 12.97043 | 14067 ft | 345 kts | 56° |
| 2026-05-01 11:56 | 50.71643 | 13.00100 | 13629 ft | 340 kts | 56° |
| 2026-05-01 11:56 | 50.73016 | 13.03106 | 13183 ft | 334 kts | 56° |
| 2026-05-01 11:57 | 50.74361 | 13.06054 | 12779 ft | 328 kts | 56° |
| 2026-05-01 11:57 | 50.75253 | 13.08016 | 12500 ft | 324 kts | 56° |
| 2026-05-01 11:57 | 50.76974 | 13.11814 | 11960 ft | 316 kts | 56° |
| 2026-05-01 11:57 | 50.78225 | 13.14577 | 11571 ft | 304 kts | 56° |
| 2026-05-01 11:58 | 50.79449 | 13.17279 | 11177 ft | 301 kts | 56° |
| 2026-05-01 11:58 | 50.80661 | 13.19957 | 10756 ft | 299 kts | 56° |
| 2026-05-01 11:58 | 50.82606 | 13.24256 | 10096 ft | 296 kts | 56° |
| 2026-05-01 11:59 | 50.83800 | 13.26893 | 9647 ft | 294 kts | 56° |
| 2026-05-01 11:59 | 50.84984 | 13.29517 | 9204 ft | 292 kts | 56° |
| 2026-05-01 11:59 | 50.86154 | 13.32116 | 8763 ft | 287 kts | 56° |
| 2026-05-01 12:00 | 50.88063 | 13.36351 | 8057 ft | 278 kts | 56° |
| 2026-05-01 12:00 | 50.89178 | 13.38825 | 7642 ft | 273 kts | 56° |
| 2026-05-01 12:00 | 50.91347 | 13.43647 | 6775 ft | 266 kts | 55° |
| 2026-05-01 12:01 | 50.92422 | 13.46029 | 6247 ft | 265 kts | 55° |
| 2026-05-01 12:01 | 50.93510 | 13.48373 | 5804 ft | 261 kts | 50° |
| 2026-05-01 12:01 | 50.94816 | 13.50342 | 5355 ft | 258 kts | 42° |
| 2026-05-01 12:01 | 50.96153 | 13.52198 | 5020 ft | 250 kts | 42° |
| 2026-05-01 12:02 | 50.97412 | 13.53993 | 4790 ft | 237 kts | 45° |
| 2026-05-01 12:02 | 50.98567 | 13.55802 | 4367 ft | 229 kts | 46° |
| 2026-05-01 12:02 | 50.99631 | 13.57579 | 4019 ft | 215 kts | 47° |
| 2026-05-01 12:02 | 51.00670 | 13.59204 | 3815 ft | 204 kts | 42° |
| 2026-05-01 12:03 | 51.01692 | 13.60637 | 3714 ft | 188 kts | 41° |
| 2026-05-01 12:03 | 51.02666 | 13.62007 | 3394 ft | 188 kts | 41° |
| 2026-05-01 12:03 | 51.03644 | 13.63409 | 2991 ft | 190 kts | 41° |
| 2026-05-01 12:03 | 51.04594 | 13.64766 | 2770 ft | 175 kts | 41° |
| 2026-05-01 12:04 | 51.05453 | 13.65961 | 2634 ft | 153 kts | 40° |
| 2026-05-01 12:04 | 51.06236 | 13.67002 | 2391 ft | 144 kts | 38° |
| 2026-05-01 12:04 | 51.07003 | 13.67964 | 2192 ft | 137 kts | 38° |
| 2026-05-01 12:04 | 51.07714 | 13.68955 | 2017 ft | 135 kts | 40° |
| 2026-05-01 12:05 | 51.08422 | 13.69920 | 1863 ft | 133 kts | 39° |
| 2026-05-01 12:05 | 51.09809 | 13.71820 | 1473 ft | 129 kts | 40° |
| 2026-05-01 12:05 | 51.10500 | 13.72740 | 1294 ft | 129 kts | 38° |
| 2026-05-01 12:06 | 51.11189 | 13.73692 | 1103 ft | 134 kts | 41° |
| 2026-05-01 12:06 | 51.11896 | 13.74683 | 924 ft | 136 kts | 38° |
| 2026-05-01 12:06 | 51.12616 | 13.75673 | 740 ft | 135 kts | 39° |
| 2026-05-01 12:06 | 51.13252 | 13.76549 | 715 ft | 101 kts | 40° |
| 2026-05-01 12:07 | 51.13656 | 13.77103 | 714 ft | 52 kts | 40° |
| 2026-05-01 12:07 | 51.13864 | 13.77393 | 716 ft | 31 kts | 40° |
| 2026-05-01 12:07 | 51.13892 | 13.77533 | 715 ft | 13 kts | 121° |
| 2026-05-01 12:07 | 51.13833 | 13.77640 | 712 ft | 13 kts | 133° |
| 2026-05-01 12:08 | 51.13770 | 13.77722 | 712 ft | 11 kts | 175° |
| 2026-05-01 12:08 | 51.13715 | 13.77662 | 712 ft | 9 kts | 224° |
| 2026-05-01 12:08 | 51.13651 | 13.77574 | 715 ft | 13 kts | 221° |
| 2026-05-01 12:08 | 51.13579 | 13.77475 | 713 ft | 17 kts | 221° |
| 2026-05-01 12:09 | 51.13469 | 13.77323 | 712 ft | 23 kts | 220° |
| 2026-05-01 12:09 | 51.13342 | 13.77150 | 712 ft | 25 kts | 221° |
| 2026-05-01 12:09 | 51.13203 | 13.76956 | 712 ft | 28 kts | 221° |
| 2026-05-01 12:09 | 51.13049 | 13.76748 | 713 ft | 30 kts | 221° |
| 2026-05-01 12:10 | 51.12903 | 13.76547 | 712 ft | 28 kts | 220° |
| 2026-05-01 12:10 | 51.12736 | 13.76562 | 711 ft | 12 kts | 130° |
| 2026-05-01 12:10 | 51.12692 | 13.76625 | 713 ft | 4 kts | 179° |
| 2026-05-01 12:11 | 51.12647 | 13.76568 | 712 ft | 4 kts | 221° |
| 2026-05-01 12:11 | 51.12628 | 13.76543 | 714 ft | 0 kts | 221° |